Time;durP1;ratioP1;P1;durP2;ratioP2;P2;SDS_P1;SDS_P2;PMS_P1;PMS_P2;Temp;Humidity;BMP_temperature;BMP_pressure;BME280_temperature;BME280_humidity;BME280_pressure;Samples;Min_cycle;Max_cycle;Signal;HPM_P1;HPM_P2
2022/09/28 00:01:17;;;;;;;48.98;24.43;;;;;;;10.73;100.00;97970.72;1793709;80;20894;-69
2022/09/28 00:03:48;;;;;;;46.15;22.45;;;;;;;10.72;100.00;97954.83;1793550;80;21110;-68
2022/09/28 00:06:20;;;;;;;55.25;23.92;;;;;;;10.74;100.00;97953.09;1794016;80;20981;-68
2022/09/28 00:08:53;;;;;;;58.78;24.85;;;;;;;10.73;100.00;97958.36;1793504;80;20925;-69
2022/09/28 00:11:27;;;;;;;53.33;24.30;;;;;;;10.73;100.00;97957.79;1796135;79;20965;-69
2022/09/28 00:14:02;;;;;;;;;;;;;;;10.76;100.00;97952.17;1799966;79;21505;-69
2022/09/28 00:16:28;;;;;;;46.23;22.15;;;;;;;10.76;100.00;97955.70;1796304;79;21369;-69
2022/09/28 00:18:58;;;;;;;51.55;22.02;;;;;;;10.75;100.00;97955.48;1759075;81;20951;-71
2022/09/28 00:21:32;;;;;;;55.75;23.62;;;;;;;10.73;100.00;97958.36;1717796;82;20974;-71
2022/09/28 00:24:14;;;;;;;55.03;24.27;;;;;;;10.71;100.00;97958.72;1743093;82;20902;-71
2022/09/28 00:27:04;;;;;;;;;;;;;;;10.73;100.00;97950.13;1745794;82;21568;-71
2022/09/28 00:29:35;;;;;;;60.15;23.80;;;;;;;10.76;100.00;97948.05;1738839;82;21199;-71
2022/09/28 00:32:12;;;;;;;50.63;22.37;;;;;;;10.76;100.00;97946.67;1736198;81;21454;-71
2022/09/28 00:34:44;;;;;;;52.53;22.80;;;;;;;10.75;100.00;97953.31;1762065;81;20923;-71
2022/09/28 00:37:17;;;;;;;57.13;22.35;;;;;;;10.73;100.00;97943.27;1762120;81;20900;-71
2022/09/28 00:39:52;;;;;;;53.02;23.15;;;;;;;10.72;100.00;97940.30;1736125;81;20903;-71
2022/09/28 00:42:26;;;;;;;48.85;23.45;;;;;;;10.72;100.00;97936.19;1736315;81;20952;-71
2022/09/28 00:44:56;;;;;;;61.05;23.30;;;;;;;10.73;100.00;97943.27;1761419;81;20939;-72
2022/09/28 00:47:45;;;;;;;49.67;22.75;;;;;;;10.72;100.00;97936.98;1761963;81;20927;-72
2022/09/28 00:50:23;;;;;;;50.90;22.85;;;;;;;10.72;100.00;97937.56;1761870;81;20991;-73
2022/09/28 00:53:14;;;;;;;56.55;24.00;;;;;;;10.72;100.00;97937.56;1735361;81;21423;-72
2022/09/28 00:55:51;;;;;;;53.05;22.27;;;;;;;10.71;100.00;97940.88;1726681;81;21266;-72
2022/09/28 00:58:31;;;;;;;55.80;22.65;;;;;;;10.71;100.00;97940.09;1761320;81;20887;-72
2022/09/28 01:00:57;;;;;;;57.80;23.62;;;;;;;10.73;100.00;97933.66;1761490;81;20907;-72
2022/09/28 01:03:26;;;;;;;57.62;22.80;;;;;;;10.75;100.00;97928.61;1762293;81;20951;-71
2022/09/28 01:06:02;;;;;;;47.90;22.25;;;;;;;10.76;100.00;97926.09;1736456;81;20990;-71
2022/09/28 01:08:33;;;;;;;47.00;23.25;;;;;;;10.76;100.00;97928.84;1761951;81;21193;-71
2022/09/28 01:11:08;;;;;;;55.35;23.35;;;;;;;10.76;100.00;97928.27;1749053;81;21009;-71
2022/09/28 01:13:44;;;;;;;46.88;22.75;;;;;;;10.78;100.00;97933.39;1704348;82;20886;-72
2022/09/28 01:16:53;;;;;;;40.78;21.87;;;;;;;10.77;100.00;97933.97;1735315;82;21009;-72
2022/09/28 01:20:01;;;;;;;50.10;22.60;;;;;;;10.78;100.00;97933.39;1714060;82;20976;-72
2022/09/28 01:22:44;;;;;;;48.55;22.37;;;;;;;10.78;100.00;97936.14;1766270;81;21154;-72
2022/09/28 01:25:28;;;;;;;46.48;23.73;;;;;;;10.79;100.00;97940.48;1766232;81;20934;-72
2022/09/28 01:28:10;;;;;;;43.38;22.55;;;;;;;10.80;100.00;97935.20;1736463;81;21469;-72
2022/09/28 01:31:03;;;;;;;51.20;21.60;;;;;;;10.81;100.00;97935.43;1766657;81;20923;-72
2022/09/28 01:33:37;;;;;;;48.50;20.45;;;;;;;10.82;100.00;97935.08;1766899;81;26730;-72
2022/09/28 01:36:31;;;;;;;44.40;20.62;;;;;;;10.83;100.00;97936.66;1765336;81;21202;-72
2022/09/28 01:39:18;;;;;;;53.02;21.10;;;;;;;10.84;100.00;97932.77;1751458;81;20884;-71
2022/09/28 01:41:50;;;;;;;35.43;19.65;;;;;;;10.85;100.00;97928.87;1737802;81;20962;-72
2022/09/28 01:44:19;;;;;;;38.07;18.93;;;;;;;10.84;100.00;97930.02;1766161;81;20960;-72
2022/09/28 01:46:51;;;;;;;38.23;18.42;;;;;;;10.82;100.00;97930.95;1766340;81;20868;-72
2022/09/28 01:49:26;;;;;;;33.05;18.17;;;;;;;10.82;100.00;97935.65;1766473;81;21186;-73
2022/09/28 01:52:19;;;;;;;36.05;18.02;;;;;;;10.80;100.00;97937.38;1736667;81;20970;-72
2022/09/28 01:55:04;;;;;;;34.48;18.82;;;;;;;10.80;100.00;97940.12;1766584;81;20938;-72
2022/09/28 01:57:48;;;;;;;36.88;17.85;;;;;;;10.78;100.00;97941.63;1766495;81;21076;-71
2022/09/28 02:00:15;;;;;;;35.70;17.65;;;;;;;10.76;100.00;97938.45;1765310;81;20966;-71
2022/09/28 02:03:11;;;;;;;40.08;18.65;;;;;;;10.75;100.00;97937.64;1766263;81;21257;-71
2022/09/28 02:05:52;;;;;;;42.10;18.35;;;;;;;10.75;100.00;97939.59;1766397;81;21443;-71
2022/09/28 02:08:31;;;;;;;43.08;17.57;;;;;;;10.74;100.00;97943.49;1736263;81;20887;-71
2022/09/28 02:11:14;;;;;;;45.12;19.27;;;;;;;10.70;100.00;97939.28;1767024;80;20956;-72
2022/09/28 02:14:06;;;;;;;43.33;19.10;;;;;;;10.68;100.00;97931.19;1744260;81;21470;-71
2022/09/28 02:16:53;;;;;;;39.80;18.02;;;;;;;10.66;100.00;97934.86;1744152;81;20867;-71
2022/09/28 02:19:28;;;;;;;44.63;18.95;;;;;;;10.65;100.00;97934.06;1743495;81;21021;-71
2022/09/28 02:22:04;;;;;;;54.03;19.27;;;;;;;10.65;100.00;97935.44;1770457;81;20930;-71
2022/09/28 02:24:41;;;;;;;56.75;20.00;;;;;;;10.65;100.00;97942.87;1753534;81;20930;-71
2022/09/28 02:27:17;;;;;;;47.88;19.05;;;;;;;10.63;100.00;97943.80;1743854;81;20999;-71
2022/09/28 02:29:49;;;;;;;47.05;20.05;;;;;;;10.61;100.00;97946.11;1767421;81;21185;-71
2022/09/28 02:32:21;;;;;;;59.25;22.02;;;;;;;10.62;100.00;97938.09;1770198;81;21012;-71
2022/09/28 02:34:49;;;;;;;54.85;20.50;;;;;;;10.64;100.00;97935.22;1744914;81;21458;-71
2022/09/28 02:37:19;;;;;;;59.75;21.15;;;;;;;10.65;100.00;97929.16;1769345;81;21427;-71
2022/09/28 02:39:48;;;;;;;47.83;20.85;;;;;;;10.67;100.00;97930.97;1739127;82;20902;-71
2022/09/28 02:42:33;;;;;;;50.28;21.02;;;;;;;10.68;100.00;97937.47;1709490;84;22120;-71
2022/09/28 02:45:32;;;;;;;45.10;19.07;;;;;;;10.70;100.00;97946.15;1738739;82;21436;-71
2022/09/28 02:48:25;;;;;;;45.08;19.65;;;;;;;10.74;100.00;97946.23;1769557;81;21442;-69
2022/09/28 02:51:12;;;;;;;52.10;20.52;;;;;;;10.74;100.00;97947.61;1729340;81;21064;-70
2022/09/28 02:54:02;;;;;;;47.05;19.92;;;;;;;10.76;100.00;97944.73;1758507;81;20899;-70
2022/09/28 02:56:56;;;;;;;44.83;20.55;;;;;;;10.78;100.00;97947.91;1757883;81;21149;-70
2022/09/28 02:59:56;;;;;;;46.40;20.15;;;;;;;10.80;100.00;97947.56;1741978;81;20914;-68
2022/09/28 03:03:13;;;;;;;50.92;22.40;;;;;;;10.79;100.00;97948.14;1774261;81;20958;-69
2022/09/28 03:05:59;;;;;;;49.03;21.45;;;;;;;10.79;100.00;97950.08;1759442;81;20973;-70
2022/09/28 03:08:40;;;;;;;52.75;19.65;;;;;;;10.78;100.00;97952.03;1733097;81;20962;-69
2022/09/28 03:11:17;;;;;;;54.08;21.60;;;;;;;10.79;100.00;97945.39;1783548;78;21518;-68
2022/09/28 03:13:49;;;;;;;48.52;19.98;;;;;;;10.83;100.00;97950.97;1826023;78;20906;-71
2022/09/28 03:16:23;;;;;;;52.23;22.22;;;;;;;10.82;100.00;97946.62;1797390;78;20885;-70
2022/09/28 03:18:57;;;;;;;51.45;20.97;;;;;;;10.80;100.00;97952.47;1825895;78;20930;-69
2022/09/28 03:21:31;;;;;;;50.12;21.52;;;;;;;10.80;100.00;97946.19;1825550;77;20929;-69
2022/09/28 03:23:58;;;;;;;48.73;20.50;;;;;;;10.82;100.00;97949.38;1826102;78;21074;-70
2022/09/28 03:26:27;;;;;;;53.42;22.52;;;;;;;10.81;100.00;97941.72;1826276;78;20922;-68
2022/09/28 03:28:57;;;;;;;53.87;22.62;;;;;;;10.81;100.00;97936.80;1825979;78;20910;-71
2022/09/28 03:31:26;;;;;;;55.38;22.98;;;;;;;10.79;100.00;97939.11;1784622;80;20876;-69
2022/09/28 03:33:57;;;;;;;50.25;20.60;;;;;;;10.79;100.00;97941.27;1727417;81;21465;-70
2022/09/28 03:36:28;;;;;;;49.58;21.45;;;;;;;10.80;100.00;97938.75;1750795;81;21269;-70
2022/09/28 03:39:03;;;;;;;55.15;22.75;;;;;;;10.81;100.00;97934.85;1736283;80;21581;-72
2022/09/28 03:41:35;;;;;;;48.75;22.00;;;;;;;10.82;100.00;97937.82;1766932;80;21553;-74
2022/09/28 03:44:04;;;;;;;48.02;21.30;;;;;;;10.83;100.00;97940.78;1753387;81;21454;-76
2022/09/28 03:46:34;;;;;;;50.25;21.87;;;;;;;10.85;100.00;97937.69;1779017;79;20986;-77
2022/09/28 03:49:03;;;;;;;49.38;21.15;;;;;;;10.86;100.00;97932.41;1784185;80;21147;-77
2022/09/28 03:51:29;;;;;;;43.28;21.40;;;;;;;10.86;100.00;97927.72;1784651;80;20861;-75
2022/09/28 03:53:56;;;;;;;46.50;20.15;;;;;;;10.88;100.00;97928.16;1782826;80;21086;-75
2022/09/28 03:56:23;;;;;;;47.83;21.27;;;;;;;10.89;100.00;97922.09;1756327;81;20970;-73
2022/09/28 03:58:50;;;;;;;43.50;21.80;;;;;;;10.89;100.00;97926.20;1753706;81;21359;-73
2022/09/28 04:01:17;;;;;;;46.80;21.97;;;;;;;10.89;100.00;97927.01;1755402;81;21127;-79
2022/09/28 04:03:44;;;;;;;41.08;20.72;;;;;;;10.87;100.00;97926.56;1726388;81;20947;-80
2022/09/28 04:06:11;;;;;;;43.98;20.82;;;;;;;10.85;100.00;97922.01;1756880;81;20911;-80
2022/09/28 04:08:39;;;;;;;46.37;22.15;;;;;;;10.83;100.00;97922.94;1756824;81;20891;-72
2022/09/28 04:11:06;;;;;;;52.73;23.70;;;;;;;10.81;100.00;97919.75;1756745;81;20879;-74
2022/09/28 04:13:36;;;;;;;47.15;23.00;;;;;;;10.79;100.00;97919.89;1756790;81;21558;-77
2022/09/28 04:16:03;;;;;;;46.48;21.42;;;;;;;10.78;100.00;97921.05;1756592;81;20923;-76
2022/09/28 04:18:34;;;;;;;43.98;21.62;;;;;;;10.79;100.00;97919.31;1754208;81;21474;-78
2022/09/28 04:21:19;;;;;;;42.80;22.07;;;;;;;10.81;100.00;97912.89;1756753;81;20934;-72
2022/09/28 04:23:51;;;;;;;43.80;21.15;;;;;;;10.80;100.00;97910.50;1765312;81;20867;-77
2022/09/28 04:26:23;;;;;;;46.55;22.55;;;;;;;10.80;100.00;97908.55;1765445;81;21123;-77
2022/09/28 04:31:48;;;;;;;41.65;21.50;;;;;;;10.82;100.00;97913.69;1733392;81;20923;-74
2022/09/28 04:34:21;;;;;;;40.83;20.37;;;;;;;10.83;100.00;97918.03;1765785;81;20931;-74
2022/09/28 04:36:48;;;;;;;42.20;22.48;;;;;;;10.85;100.00;97918.47;1765339;81;21483;-75
2022/09/28 04:39:18;;;;;;;38.30;22.13;;;;;;;10.87;100.00;97925.19;1788933;79;21202;-73
2022/09/28 04:41:47;;;;;;;41.68;22.65;;;;;;;10.90;100.00;97926.43;1816598;79;20911;-75
2022/09/28 04:44:14;;;;;;;45.17;22.73;;;;;;;10.93;100.00;97920.80;1749853;82;20928;-73
2022/09/28 04:46:41;;;;;;;39.67;21.90;;;;;;;10.99;100.00;97923.46;1759689;81;20948;-72
2022/09/28 04:49:23;;;;;;;39.67;22.55;;;;;;;11.06;100.00;97920.87;1691685;81;20986;-74
2022/09/28 04:51:54;;;;;;;36.85;21.50;;;;;;;11.12;100.00;97917.50;1822413;78;21281;-73
2022/09/28 04:54:21;;;;;;;38.58;22.60;;;;;;;11.18;100.00;97916.06;1749784;81;21480;-78
2022/09/28 04:56:48;;;;;;;43.25;23.92;;;;;;;11.24;100.00;97915.20;1759475;81;21503;-78
2022/09/28 04:59:14;;;;;;;43.23;24.12;;;;;;;11.29;100.00;97914.13;1759526;81;20940;-76
2022/09/28 05:01:42;;;;;;;39.55;23.35;;;;;;;11.32;100.00;97918.91;1759353;81;20978;-76
2022/09/28 05:04:29;;;;;;;38.17;23.20;;;;;;;11.31;100.00;97922.80;1759536;81;21547;-81
2022/09/28 05:07:14;;;;;;;44.60;24.95;;;;;;;11.33;100.00;97932.28;1758680;81;21573;-72
2022/09/28 05:09:42;;;;;;;48.00;25.20;;;;;;;11.36;100.00;97938.43;1749113;81;20934;-69
2022/09/28 05:12:11;;;;;;;44.25;23.00;;;;;;;11.37;100.00;97935.91;1729809;82;20907;-80
2022/09/28 05:14:37;;;;;;;46.48;24.75;;;;;;;11.37;100.00;97937.86;1726295;83;21438;-79
2022/09/28 05:17:04;;;;;;;43.20;23.83;;;;;;;11.36;100.00;97937.63;1726507;83;21111;-79
2022/09/28 05:19:33;;;;;;;36.65;22.10;;;;;;;11.34;100.00;97934.45;1725199;83;20934;-72
2022/09/28 05:22:04;;;;;;;37.98;22.40;;;;;;;11.34;100.00;97935.83;1726091;83;21442;-71
2022/09/28 05:24:39;;;;;;;36.88;21.68;;;;;;;11.30;100.00;97941.24;1725905;83;20867;-76
2022/09/28 05:27:06;;;;;;;38.10;22.58;;;;;;;11.27;100.00;97939.78;1727008;81;20919;-77
2022/09/28 05:29:34;;;;;;;42.15;24.55;;;;;;;11.28;100.00;97938.63;1746573;81;21683;-75
2022/09/28 05:32:18;;;;;;;33.65;20.52;;;;;;;11.30;100.00;97942.61;1787975;78;20887;-70
2022/09/28 05:34:49;;;;;;;40.52;23.12;;;;;;;11.34;100.00;97946.23;1764494;80;20886;-70
2022/09/28 05:37:18;;;;;;;41.37;23.45;;;;;;;11.38;100.00;97944.94;1788014;80;20963;-71
2022/09/28 05:39:44;;;;;;;42.25;24.00;;;;;;;11.44;100.00;97942.13;1789001;80;20942;-71
2022/09/28 05:42:11;;;;;;;39.63;24.00;;;;;;;11.51;100.00;97941.70;1788329;79;21219;-72
2022/09/28 05:44:39;;;;;;;43.10;26.40;;;;;;;11.59;100.00;97943.41;1788634;80;20926;-70
2022/09/28 05:47:05;;;;;;;38.13;24.25;;;;;;;11.68;100.00;97947.33;1788971;80;20922;-70
2022/09/28 05:49:32;;;;;;;38.85;24.40;;;;;;;11.75;100.00;97942.55;1788894;80;21532;-70
2022/09/28 05:52:01;;;;;;;47.62;29.77;;;;;;;11.76;100.00;97936.70;1798751;78;21524;-70
2022/09/28 05:54:28;;;;;;;49.13;33.45;;;;;;;11.75;100.00;97943.35;1804223;77;21128;-88
2022/09/28 05:56:55;;;;;;;71.75;45.60;;;;;;;11.79;100.00;97942.87;1792409;78;20898;-77
2022/09/28 05:59:22;;;;;;;66.47;42.48;;;;;;;11.82;100.00;97946.27;1797476;78;20926;-76
2022/09/28 06:01:50;;;;;;;53.73;35.60;;;;;;;11.85;100.00;97944.75;1798243;77;20890;-79
2022/09/28 06:04:17;;;;;;;50.23;33.58;;;;;;;11.88;100.00;97947.58;1788987;80;21476;-84
2022/09/28 06:06:44;;;;;;;47.62;31.07;;;;;;;11.89;100.00;97946.41;1789039;80;21144;-74
2022/09/28 06:09:11;;;;;;;44.03;29.15;;;;;;;11.93;100.00;97945.69;1754413;81;20964;-87
2022/09/28 06:11:58;;;;;;;47.23;30.50;;;;;;;11.94;100.00;97937.66;1732281;81;21719;-83
2022/09/28 06:14:45;;;;;;;45.83;29.67;;;;;;;11.97;100.00;97938.30;1753182;80;20975;-80
2022/09/28 06:17:12;;;;;;;41.45;27.65;;;;;;;11.99;100.00;97940.11;1753344;81;20966;-72
2022/09/28 06:19:39;;;;;;;40.48;27.95;;;;;;;12.01;100.00;97929.55;1726794;83;21808;-70
2022/09/28 06:22:26;;;;;;;43.13;28.55;;;;;;;12.04;100.00;97926.86;1724163;83;20967;-78
2022/09/28 06:25:08;;;;;;;43.00;28.92;;;;;;;12.11;100.00;97926.20;1726752;83;20843;-76
2022/09/28 06:27:41;;;;;;;49.03;31.15;;;;;;;12.17;100.00;97928.26;1735283;82;21010;-75
2022/09/28 06:30:12;;;;;;;43.73;28.70;;;;;;;12.15;100.00;97916.83;1704752;82;21044;-75
2022/09/28 06:32:40;;;;;;;48.70;31.82;;;;;;;12.15;100.00;97919.58;1739187;81;21904;-70
2022/09/28 06:35:10;;;;;;;45.85;32.15;;;;;;;12.16;100.00;97920.37;1753186;81;21391;-73
2022/09/28 06:37:42;;;;;;;51.70;33.42;;;;;;;12.15;100.00;97917.41;1748640;81;21419;-75
2022/09/28 06:40:13;;;;;;;50.20;35.40;;;;;;;12.13;100.00;97912.87;1728157;81;21521;-75
2022/09/28 06:42:44;;;;;;;48.38;31.70;;;;;;;12.15;100.00;97914.66;1704227;82;20930;-71
2022/09/28 06:45:24;;;;;;;44.90;27.58;;;;;;;12.22;100.00;97912.03;1695571;81;21744;-74
2022/09/28 06:48:02;;;;;;;41.80;26.60;;;;;;;12.30;100.00;97901.37;1742967;81;21006;-76
2022/09/28 06:50:36;;;;;;;37.00;26.02;;;;;;;12.37;100.00;97897.37;1734804;81;21445;-74
2022/09/28 06:53:15;;;;;;;42.13;28.40;;;;;;;12.45;100.00;97899.08;1667166;82;21002;-75
2022/09/28 06:55:56;;;;;;;38.28;26.85;;;;;;;12.52;100.00;97892.90;1734964;82;21050;-72
2022/09/28 06:58:27;;;;;;;41.30;28.02;;;;;;;12.54;100.00;97889.98;1734472;82;21106;-74
2022/09/28 07:00:58;;;;;;;41.50;27.90;;;;;;;12.56;100.00;97884.91;1734867;82;20970;-75
2022/09/28 07:03:27;;;;;;;43.87;30.50;;;;;;;12.62;100.00;97888.15;1704393;82;21473;-76
2022/09/28 07:06:11;;;;;;;37.78;26.60;;;;;;;12.63;100.00;97882.86;1761748;81;21629;-74
2022/09/28 07:09:01;;;;;;;44.63;27.65;;;;;;;12.65;100.00;97888.78;1764022;81;20924;-77
2022/09/28 07:11:31;;;;;;;55.35;28.65;;;;;;;12.66;100.00;97876.61;1704024;81;21311;-77
2022/09/28 07:14:08;;;;;;;49.80;27.52;;;;;;;12.70;100.00;97878.05;1773385;80;20996;-76
2022/09/28 07:16:37;;;;;;;50.88;26.65;;;;;;;12.77;100.00;97874.79;1792997;78;20955;-76
2022/09/28 07:19:05;;;;;;;52.50;26.70;;;;;;;12.83;100.00;97871.93;1792720;80;20970;-78
2022/09/28 07:21:32;;;;;;;64.45;29.40;;;;;;;12.90;100.00;97883.63;1793181;80;21017;-72
2022/09/28 07:24:04;;;;;;;63.33;28.95;;;;;;;12.95;100.00;97875.64;1764323;80;20924;-73
2022/09/28 07:26:44;;;;;;;63.00;29.30;;;;;;;13.00;100.00;97876.11;1785063;80;20880;-75
2022/09/28 07:29:18;;;;;;;64.17;29.05;;;;;;;13.02;100.00;97868.27;1755724;80;20900;-73
2022/09/28 07:31:54;;;;;;;53.42;27.32;;;;;;;13.00;100.00;97869.23;1760346;81;22130;-73
2022/09/28 07:34:40;;;;;;;51.68;25.72;;;;;;;12.99;100.00;97867.64;1763131;80;20988;-75
2022/09/28 07:37:12;;;;;;;52.83;26.70;;;;;;;12.96;100.00;97883.53;1769819;80;22031;-74
2022/09/28 07:42:35;;;;;;;42.30;25.27;;;;;;;12.99;100.00;97878.66;1735563;81;21585;-73
2022/09/28 07:45:05;;;;;;;50.15;25.92;;;;;;;13.00;100.00;97877.48;1772058;80;20872;-74
2022/09/28 07:47:38;;;;;;;45.25;26.10;;;;;;;13.02;100.00;97871.02;1769183;80;21002;-74
2022/09/28 07:50:09;;;;;;;44.42;25.43;;;;;;;13.03;100.00;97872.61;1765155;80;21134;-75
2022/09/28 07:53:00;;;;;;;43.42;26.15;;;;;;;13.08;100.00;97877.80;1735665;81;20970;-75
2022/09/28 07:55:41;;;;;;;42.98;23.12;;;;;;;13.14;100.00;97879.66;1704647;78;21107;-76
2022/09/28 07:58:12;;;;;;;43.10;25.30;;;;;;;13.24;100.00;97880.99;1699406;82;20989;-76
2022/09/28 08:00:46;;;;;;;44.33;24.65;;;;;;;13.32;100.00;97888.16;1700543;84;21558;-73
2022/09/28 08:03:15;;;;;;;44.90;24.90;;;;;;;13.34;100.00;97889.37;1705122;82;22881;-74
2022/09/28 08:05:45;;;;;;;45.55;25.55;;;;;;;13.36;100.00;97887.63;1679365;84;21024;-75
2022/09/28 08:08:17;;;;;;;37.05;24.47;;;;;;;13.39;100.00;97878.61;1698311;84;20951;-76
2022/09/28 08:10:45;;;;;;;42.65;25.50;;;;;;;13.43;100.00;97885.75;1702636;84;21451;-74
2022/09/28 08:13:24;;;;;;;45.80;26.23;;;;;;;13.45;100.00;97881.24;1670971;84;21010;-76
2022/09/28 08:16:12;;;;;;;44.20;25.35;;;;;;;13.53;100.00;97884.30;1688353;84;21177;-74
2022/09/28 08:18:44;;;;;;;39.30;24.85;;;;;;;13.62;100.00;97873.78;1691658;84;20966;-76
2022/09/28 08:24:04;;;;;;;45.43;26.35;;;;;;;13.64;100.00;97878.33;1693593;83;21050;-82
2022/09/28 08:26:35;;;;;;;44.45;27.98;;;;;;;13.66;100.00;97882.89;1694885;84;21027;-82
2022/09/28 08:29:07;;;;;;;46.42;26.80;;;;;;;13.70;100.00;97872.69;1697704;84;21638;-80
2022/09/28 08:31:50;;;;;;;46.13;31.00;;;;;;;13.72;100.00;97881.38;1676147;85;20999;-82
2022/09/28 08:34:26;;;;;;;43.78;29.87;;;;;;;13.68;100.00;97883.30;1642969;85;21045;-76
2022/09/28 08:37:02;;;;;;;45.58;28.38;;;;;;;13.67;100.00;97883.09;1696082;82;20991;-77
2022/09/28 08:39:46;;;;;;;43.78;28.75;;;;;;;13.67;100.00;97872.06;1710670;83;21358;-77
2022/09/28 08:42:34;;;;;;;48.78;29.95;;;;;;;13.69;100.00;97882.13;1652590;83;20979;-77
2022/09/28 08:45:26;;;;;;;37.73;24.87;;;;;;;13.76;100.00;97882.22;1718399;83;20943;-75
2022/09/28 08:51:30;;;;;;;41.53;25.30;;;;;;;13.88;100.00;97877.80;1693123;83;20916;-74
2022/09/28 08:54:13;;;;;;;37.00;24.47;;;;;;;13.95;100.00;97881.80;1719704;83;20900;-74
2022/09/28 08:56:51;;;;;;;41.10;26.87;;;;;;;13.97;100.00;97880.25;1666593;85;21183;-75
2022/09/28 08:59:21;;;;;;;41.95;23.62;;;;;;;14.04;100.00;97888.60;1680576;85;20943;-76
2022/09/28 09:02:02;;;;;;;43.80;26.65;;;;;;;14.07;100.00;97888.43;1676938;85;21009;-73
2022/09/28 09:04:31;;;;;;;39.48;24.92;;;;;;;14.11;100.00;97886.50;1680533;85;20970;-75
2022/09/28 09:07:38;;;;;;;41.00;25.43;;;;;;;14.14;100.00;97885.16;1695474;84;21652;-75
2022/09/28 09:10:48;;;;;;;35.10;22.65;;;;;;;14.17;100.00;97891.89;1709840;84;21228;-76
2022/09/28 09:13:44;;;;;;;38.00;24.87;;;;;;;14.23;100.00;97896.48;1709909;84;20919;-78
2022/09/28 09:16:49;;;;;;;34.73;22.75;;;;;;;14.25;100.00;97898.27;1709408;84;21019;-73
2022/09/28 09:19:53;;;;;;;33.30;21.05;;;;;;;14.29;100.00;97899.09;1621371;87;21141;-74
2022/09/28 09:22:44;;;;;;;34.70;22.52;;;;;;;14.35;100.00;97894.23;1644330;87;21042;-74
2022/09/28 09:25:37;;;;;;;30.30;20.30;;;;;;;14.44;100.00;97890.57;1669062;85;21224;-73
2022/09/28 09:28:25;;;;;;;34.38;22.37;;;;;;;14.60;100.00;97886.76;1712639;83;20906;-70
2022/09/28 09:31:29;;;;;;;31.48;21.40;;;;;;;14.76;100.00;97892.80;1713286;83;20982;-68
2022/09/28 09:34:39;;;;;;;34.15;22.40;;;;;;;14.85;100.00;97887.75;1712461;83;21029;-72
2022/09/28 09:37:33;;;;;;;30.90;21.10;;;;;;;14.84;100.00;97894.45;1705210;83;21049;-70
2022/09/28 09:40:35;;;;;;;30.40;20.88;;;;;;;14.81;100.00;97892.45;1661676;85;21276;-69
2022/09/28 09:43:33;;;;;;;34.45;22.13;;;;;;;14.80;100.00;97893.62;1657790;84;20966;-82
2022/09/28 09:46:43;;;;;;;28.12;19.40;;;;;;;14.77;100.00;97898.53;1661689;84;21417;-72
2022/09/28 09:49:31;;;;;;;31.68;20.82;;;;;;;14.78;100.00;97889.08;1645548;85;20982;-76
2022/09/28 09:52:18;;;;;;;32.73;22.07;;;;;;;14.80;100.00;97892.25;1680817;85;20976;-75
2022/09/28 09:55:05;;;;;;;28.57;21.12;;;;;;;14.88;100.00;97897.23;1681047;85;21899;-76
2022/09/28 09:57:50;;;;;;;31.30;21.02;;;;;;;14.90;100.00;97899.03;1677845;85;21038;-75
2022/09/28 10:00:18;;;;;;;34.18;22.32;;;;;;;14.86;100.00;97897.63;1647683;85;21119;-75
2022/09/28 10:02:49;;;;;;;32.00;19.87;;;;;;;14.89;100.00;97892.70;1675194;85;21066;-73
2022/09/28 10:05:21;;;;;;;31.20;20.10;;;;;;;14.85;100.00;97894.66;1668106;85;21018;-78
2022/09/28 10:07:56;;;;;;;30.40;19.25;;;;;;;14.85;100.00;97898.80;1652946;86;21260;-77
2022/09/28 10:10:29;;;;;;;25.80;18.17;;;;;;;14.90;100.00;97893.50;1646611;85;21050;-76
2022/09/28 10:13:07;;;;;;;29.67;19.37;;;;;;;14.92;100.00;97893.91;1674450;85;21065;-80
2022/09/28 10:15:35;;;;;;;23.07;17.10;;;;;;;14.95;100.00;97892.55;1653286;85;21122;-84
2022/09/28 10:18:20;;;;;;;26.02;18.07;;;;;;;15.01;100.00;97891.02;1672287;85;21595;-70
2022/09/28 10:21:08;;;;;;;27.58;17.45;;;;;;;15.13;100.00;97887.91;1665853;86;21882;-70
2022/09/28 10:23:40;;;;;;;24.07;16.60;;;;;;;15.22;100.00;97884.80;1640955;86;20953;-87
2022/09/28 10:26:22;;;;;;;25.10;17.00;;;;;;;15.27;100.00;97889.17;1651592;87;21342;-70
2022/09/28 10:29:05;;;;;;;25.08;18.70;;;;;;;15.33;100.00;97889.01;1665889;86;21029;-77
2022/09/28 10:31:44;;;;;;;23.77;16.42;;;;;;;15.31;100.00;97892.75;1681095;84;20983;-82
2022/09/28 10:34:21;;;;;;;24.15;17.87;;;;;;;15.23;100.00;97896.06;1689341;84;21177;-77
2022/09/28 10:36:58;;;;;;;30.25;18.87;;;;;;;15.06;100.00;97892.01;1694515;84;20998;-76
2022/09/28 10:39:34;;;;;;;22.22;15.90;;;;;;;14.92;100.00;97894.70;1668572;85;21054;-78
2022/09/28 10:42:07;;;;;;;24.65;17.30;;;;;;;14.79;100.00;97889.28;1680990;85;21014;-76
2022/09/28 10:44:39;;;;;;;30.32;18.62;;;;;;;14.66;100.00;97892.13;1682079;84;21533;-85
2022/09/28 10:47:15;;;;;;;29.52;20.08;;;;;;;14.58;100.00;97894.62;1645407;86;21203;-76
2022/09/28 10:49:45;;;;;;;29.07;19.32;;;;;;;14.56;100.00;97894.22;1680673;85;20899;-80
2022/09/28 10:52:39;;;;;;;25.17;16.25;;;;;;;14.54;100.00;97896.77;1681187;85;21056;-76
2022/09/28 10:55:25;;;;;;;26.10;18.60;;;;;;;14.52;100.00;97896.36;1680917;85;21026;-84
2022/09/28 10:57:52;;;;;;;29.12;18.60;;;;;;;14.50;100.00;97886.88;1676322;85;20956;-79
2022/09/28 11:00:41;;;;;;;25.20;17.70;;;;;;;14.53;100.00;97886.11;1671407;84;21868;-81
2022/09/28 11:03:26;;;;;;;22.20;15.60;;;;;;;14.54;100.00;97886.31;1691724;84;21061;-77
2022/09/28 11:06:06;;;;;;;26.93;18.60;;;;;;;14.53;100.00;97893.80;1646754;85;21025;-80
2022/09/28 11:08:37;;;;;;;24.98;16.30;;;;;;;14.53;100.00;97895.19;1701586;84;20967;-76
2022/09/28 11:11:13;;;;;;;25.35;17.92;;;;;;;14.51;100.00;97896.74;1704086;84;21118;-79
2022/09/28 11:13:49;;;;;;;26.95;17.95;;;;;;;14.51;100.00;97900.89;1704657;84;21526;-80
2022/09/28 11:16:27;;;;;;;26.07;18.70;;;;;;;14.51;100.00;97896.74;1700964;84;21933;-81
2022/09/28 11:18:57;;;;;;;28.38;17.98;;;;;;;14.52;100.00;97894.19;1703584;84;21058;-80
2022/09/28 11:21:27;;;;;;;21.45;16.42;;;;;;;14.56;100.00;97901.12;1703434;84;20963;-79
2022/09/28 11:24:23;;;;;;;25.50;17.95;;;;;;;14.58;100.00;97896.80;1704401;84;21506;-79
2022/09/28 11:26:55;;;;;;;26.50;18.07;;;;;;;14.58;100.00;97895.42;1704214;84;21343;-79
2022/09/28 11:29:35;;;;;;;23.47;18.00;;;;;;;14.61;100.00;97901.56;1704422;84;21011;-88
2022/09/28 11:32:06;;;;;;;23.12;16.87;;;;;;;14.64;100.00;97904.16;1700339;84;20908;-84
2022/09/28 11:34:37;;;;;;;26.25;18.42;;;;;;;14.65;100.00;97901.59;1702788;84;21014;-75
2022/09/28 11:37:45;;;;;;;22.62;16.62;;;;;;;14.65;100.00;97908.50;1704359;84;21495;-77
2022/09/28 11:40:24;;;;;;;21.80;16.37;;;;;;;14.61;100.00;97914.58;1704090;84;21245;-82
2022/09/28 11:43:28;;;;;;;21.73;16.75;;;;;;;14.52;100.00;97916.28;1704111;84;21015;-77
2022/09/28 11:46:12;;;;;;;19.82;15.65;;;;;;;14.49;100.00;97907.38;1704620;84;21039;-78
2022/09/28 11:48:46;;;;;;;22.60;16.50;;;;;;;14.48;100.00;97907.96;1704323;84;21066;-79
2022/09/28 11:51:27;;;;;;;18.57;15.85;;;;;;;14.47;100.00;97911.89;1704728;84;21513;-78
2022/09/28 11:53:58;;;;;;;22.60;16.87;;;;;;;14.47;100.00;97918.80;1703775;84;21184;-78
2022/09/28 11:56:41;;;;;;;19.35;14.13;;;;;;;14.45;100.00;97910.10;1703436;84;20895;-79
2022/09/28 11:59:21;;;;;;;26.93;17.90;;;;;;;14.44;100.00;97907.13;1703939;84;21018;-79
2022/09/28 12:02:18;;;;;;;26.60;18.10;;;;;;;14.43;100.00;97908.34;1703874;84;21072;-83
2022/09/28 12:05:22;;;;;;;31.35;18.62;;;;;;;14.40;100.00;97907.69;1696849;84;22261;-81
2022/09/28 12:07:54;;;;;;;23.85;18.40;;;;;;;14.37;100.00;97908.45;1704577;84;21134;-87